createdAt,value
2022-12-11T00:01:25.191Z,5.86
2022-12-11T00:03:51.564Z,6.52
2022-12-11T00:06:17.948Z,6.45
2022-12-11T00:08:44.331Z,6.09
2022-12-11T00:11:10.682Z,6.07
2022-12-11T00:13:37.015Z,5.81
2022-12-11T00:16:03.341Z,5.99
2022-12-11T00:18:29.688Z,5.57
2022-12-11T00:20:56.031Z,5.41
2022-12-11T00:23:22.421Z,5.76
2022-12-11T00:25:48.808Z,5.68
2022-12-11T00:28:15.207Z,5.97
2022-12-11T00:30:41.576Z,5.71
2022-12-11T00:33:07.967Z,5.83
2022-12-11T00:35:34.320Z,5.79
2022-12-11T00:38:00.654Z,6.18
2022-12-11T00:40:26.994Z,6.06
2022-12-11T00:42:53.415Z,6.70
2022-12-11T00:45:19.847Z,7.00
2022-12-11T00:47:46.261Z,6.92
2022-12-11T00:50:12.665Z,7.00
2022-12-11T00:52:39.016Z,6.71
2022-12-11T00:55:05.401Z,6.74
2022-12-11T00:57:31.802Z,5.92
2022-12-11T00:59:58.172Z,6.24
2022-12-11T01:02:24.587Z,6.10
2022-12-11T01:04:50.990Z,6.21
2022-12-11T01:07:17.389Z,6.49
2022-12-11T01:09:43.751Z,6.52
2022-12-11T01:12:10.095Z,6.65
2022-12-11T01:14:36.468Z,6.75
2022-12-11T01:17:02.916Z,6.76
2022-12-11T01:19:29.336Z,6.87
2022-12-11T01:21:55.724Z,6.76
2022-12-11T01:24:22.119Z,6.87
2022-12-11T01:26:48.502Z,6.93
2022-12-11T01:29:14.843Z,6.77
2022-12-11T01:31:41.191Z,6.92
2022-12-11T01:34:07.540Z,6.89
2022-12-11T01:36:33.886Z,6.76
2022-12-11T01:39:00.276Z,6.68
2022-12-11T01:41:26.622Z,6.85
2022-12-11T01:43:52.998Z,6.48
2022-12-11T01:46:19.422Z,6.77
2022-12-11T01:48:45.853Z,6.56
2022-12-11T01:51:12.272Z,6.64
2022-12-11T01:53:38.652Z,6.27
2022-12-11T01:56:04.994Z,6.48
2022-12-11T01:58:31.339Z,5.99
2022-12-11T02:00:57.733Z,5.63
2022-12-11T02:03:24.127Z,6.09
2022-12-11T02:05:50.499Z,6.11
2022-12-11T02:08:16.883Z,5.65
2022-12-11T02:10:43.295Z,5.25
2022-12-11T02:13:09.632Z,5.64
2022-12-11T02:15:36.006Z,5.36
2022-12-11T02:18:02.349Z,5.49
2022-12-11T02:20:28.726Z,5.39
2022-12-11T02:22:55.061Z,5.23
2022-12-11T02:25:21.481Z,5.35
2022-12-11T02:27:47.852Z,5.57
2022-12-11T02:30:14.229Z,5.64
2022-12-11T02:32:40.562Z,5.28
2022-12-11T02:35:06.954Z,5.50
2022-12-11T02:37:33.283Z,5.51
2022-12-11T02:39:59.621Z,5.59
2022-12-11T02:42:26.017Z,4.97
2022-12-11T02:44:52.403Z,5.11
2022-12-11T02:47:18.798Z,5.01
2022-12-11T02:49:45.154Z,5.20
2022-12-11T02:52:11.546Z,5.50
2022-12-11T02:54:37.904Z,5.92
2022-12-11T02:57:04.237Z,5.79
2022-12-11T02:59:30.570Z,5.63
2022-12-11T03:01:56.927Z,5.41
2022-12-11T03:04:26.278Z,5.66
2022-12-11T03:06:53.751Z,6.13
2022-12-11T03:09:20.088Z,6.39
2022-12-11T03:11:46.428Z,6.10
2022-12-11T03:14:12.772Z,6.00
2022-12-11T03:16:39.140Z,6.44
2022-12-11T03:19:05.552Z,6.48
2022-12-11T03:21:31.955Z,6.58
2022-12-11T03:23:58.337Z,6.42
2022-12-11T03:26:24.722Z,6.13
2022-12-11T03:28:51.078Z,6.16
2022-12-11T03:31:17.508Z,6.18
2022-12-11T03:33:43.936Z,6.33
2022-12-11T03:36:10.345Z,6.40
2022-12-11T03:38:36.736Z,6.27
2022-12-11T03:41:03.082Z,6.17
2022-12-11T03:43:29.465Z,6.40
2022-12-11T03:45:55.885Z,6.56
2022-12-11T03:48:22.269Z,6.06
2022-12-11T03:50:48.670Z,6.46
2022-12-11T03:53:15.064Z,6.55
2022-12-11T03:55:41.449Z,6.56
2022-12-11T03:58:07.841Z,6.13
2022-12-11T04:00:34.260Z,6.17
2022-12-11T04:03:00.611Z,6.50
2022-12-11T04:05:26.954Z,6.06
2022-12-11T04:07:53.368Z,6.08
2022-12-11T04:10:19.753Z,5.85
2022-12-11T04:12:46.152Z,5.90
2022-12-11T04:15:12.857Z,5.54
2022-12-11T04:17:39.437Z,5.29
2022-12-11T04:20:05.822Z,5.10
2022-12-11T04:22:32.197Z,5.02
2022-12-11T04:24:58.552Z,5.29
2022-12-11T04:27:24.888Z,5.48
2022-12-11T04:29:51.271Z,5.27
2022-12-11T04:32:17.646Z,5.19
2022-12-11T04:34:43.999Z,5.20
2022-12-11T04:37:10.352Z,4.91
2022-12-11T04:39:36.694Z,4.89
2022-12-11T04:42:03.049Z,4.99
2022-12-11T04:44:29.391Z,5.03
2022-12-11T04:46:55.743Z,4.84
2022-12-11T04:49:22.078Z,5.24
2022-12-11T04:51:48.462Z,5.61
2022-12-11T04:54:14.806Z,5.84
2022-12-11T04:56:41.194Z,5.47
2022-12-11T04:59:07.576Z,5.47
2022-12-11T05:01:34.022Z,5.40
2022-12-11T05:04:00.449Z,5.74
2022-12-11T05:06:26.832Z,5.83
2022-12-11T05:08:53.175Z,5.58
2022-12-11T05:11:19.563Z,5.61
2022-12-11T05:13:45.918Z,5.53
2022-12-11T05:16:12.659Z,5.40
2022-12-11T05:18:39.145Z,5.46
2022-12-11T05:21:05.537Z,5.29
2022-12-11T05:23:31.907Z,5.31
2022-12-11T05:25:58.260Z,4.95
2022-12-11T05:28:24.608Z,5.32
2022-12-11T05:30:50.959Z,5.12
2022-12-11T05:33:17.336Z,5.14
2022-12-11T05:35:43.733Z,5.13
2022-12-11T05:38:10.085Z,4.96
2022-12-11T05:40:36.476Z,4.96
2022-12-11T05:43:02.874Z,4.89
2022-12-11T05:45:29.257Z,4.97
2022-12-11T05:47:55.649Z,4.60
2022-12-11T05:50:21.996Z,4.74
2022-12-11T05:52:48.336Z,4.14
2022-12-11T05:55:14.681Z,4.31
2022-12-11T05:57:41.014Z,4.29
2022-12-11T06:00:07.407Z,4.07
2022-12-11T06:02:33.881Z,3.44
2022-12-11T06:05:00.363Z,3.31
2022-12-11T06:07:26.739Z,3.56
2022-12-11T06:09:53.130Z,3.64
2022-12-11T06:12:19.618Z,3.19
2022-12-11T06:14:46.018Z,2.99
2022-12-11T06:17:12.376Z,3.18
2022-12-11T06:19:38.728Z,2.81
2022-12-11T06:22:05.078Z,2.70
2022-12-11T06:24:31.418Z,2.81
2022-12-11T06:26:57.756Z,3.31
2022-12-11T06:29:24.095Z,3.60
2022-12-11T06:31:50.539Z,3.44
2022-12-11T06:34:16.963Z,2.98
2022-12-11T06:36:43.353Z,2.93
2022-12-11T06:39:09.705Z,2.83
2022-12-11T06:41:36.081Z,3.05
2022-12-11T06:44:02.471Z,2.68
2022-12-11T06:46:28.876Z,3.03
2022-12-11T06:48:55.285Z,2.61
2022-12-11T06:51:21.669Z,2.57
2022-12-11T06:53:48.012Z,2.76
2022-12-11T06:56:14.414Z,2.80
2022-12-11T06:58:40.806Z,2.95
2022-12-11T07:01:07.173Z,2.78
2022-12-11T07:03:33.567Z,2.86
2022-12-11T07:05:59.958Z,2.59
2022-12-11T07:08:26.359Z,2.24
2022-12-11T07:10:52.780Z,2.47
2022-12-11T07:13:19.165Z,2.52
2022-12-11T07:15:45.506Z,2.38
2022-12-11T07:18:11.885Z,2.37
2022-12-11T07:20:38.232Z,2.56
2022-12-11T07:23:04.598Z,2.45
2022-12-11T07:25:30.988Z,2.40
2022-12-11T07:27:57.338Z,2.39
2022-12-11T07:30:23.680Z,2.64
2022-12-11T07:32:50.146Z,2.40
2022-12-11T07:35:16.534Z,2.71
2022-12-11T07:37:42.914Z,2.85
2022-12-11T07:40:09.299Z,2.88
2022-12-11T07:42:35.688Z,3.25
2022-12-11T07:45:02.093Z,3.29
2022-12-11T07:47:28.494Z,2.87
2022-12-11T07:49:54.833Z,2.64
2022-12-11T07:52:21.224Z,2.79
2022-12-11T07:54:47.563Z,3.43
2022-12-11T07:57:14.500Z,3.48
2022-12-11T07:59:40.915Z,3.69
2022-12-11T08:02:07.360Z,3.73
2022-12-11T08:04:33.777Z,3.84
2022-12-11T08:07:00.170Z,3.77
2022-12-11T08:09:26.550Z,4.02
2022-12-11T08:11:52.933Z,4.00
2022-12-11T08:14:19.274Z,4.39
2022-12-11T08:16:45.649Z,4.67
2022-12-11T08:19:12.022Z,4.37
2022-12-11T08:21:38.393Z,4.34
2022-12-11T08:24:04.774Z,4.34
2022-12-11T08:26:31.161Z,4.28
2022-12-11T08:28:57.505Z,3.68
2022-12-11T08:31:23.892Z,3.59
2022-12-11T08:33:50.273Z,3.86
2022-12-11T08:36:16.638Z,4.13
2022-12-11T08:38:42.973Z,4.21
2022-12-11T08:41:09.348Z,4.31
2022-12-11T08:43:35.724Z,4.47
2022-12-11T08:46:02.261Z,4.28
2022-12-11T08:48:28.713Z,3.91
2022-12-11T08:50:55.053Z,4.03
2022-12-11T08:53:21.383Z,4.40
2022-12-11T08:55:47.715Z,3.96
2022-12-11T08:58:14.056Z,4.55
2022-12-11T09:00:40.443Z,3.80
2022-12-11T09:03:12.529Z,4.37
2022-12-11T09:05:39.213Z,4.25
2022-12-11T09:08:05.606Z,4.50
2022-12-11T09:10:32.053Z,4.41
2022-12-11T09:12:58.436Z,4.73
2022-12-11T09:15:24.767Z,4.07
2022-12-11T09:17:51.142Z,4.38
2022-12-11T09:20:17.515Z,4.23
2022-12-11T09:22:43.902Z,3.93
2022-12-11T09:25:10.578Z,4.65
2022-12-11T09:27:37.191Z,5.07
2022-12-11T09:30:03.585Z,4.78
2022-12-11T09:32:29.950Z,4.59
2022-12-11T09:34:56.324Z,4.86
2022-12-11T09:37:22.709Z,4.28
2022-12-11T09:39:49.048Z,4.28
2022-12-11T09:42:15.427Z,4.70
2022-12-11T09:44:41.839Z,4.70
2022-12-11T09:47:08.252Z,4.73
2022-12-11T09:49:34.652Z,5.09
2022-12-11T09:52:00.995Z,4.73
2022-12-11T09:54:27.330Z,4.70
2022-12-11T09:56:53.681Z,5.05
2022-12-11T09:59:20.020Z,4.55
2022-12-11T10:01:46.447Z,4.49
2022-12-11T10:04:12.843Z,4.46
2022-12-11T10:06:39.196Z,4.45
2022-12-11T10:09:05.550Z,4.64
2022-12-11T10:11:31.916Z,4.03
2022-12-11T10:13:58.253Z,4.18
2022-12-11T10:16:24.590Z,4.28
2022-12-11T10:18:50.915Z,4.05
2022-12-11T10:21:17.333Z,4.36
2022-12-11T10:23:43.709Z,4.57
2022-12-11T10:26:10.049Z,4.26
2022-12-11T10:28:36.446Z,4.45
2022-12-11T10:31:02.846Z,4.28
2022-12-11T10:33:29.217Z,4.75
2022-12-11T10:35:55.552Z,4.67
2022-12-11T10:38:21.939Z,4.86
2022-12-11T10:40:48.285Z,5.20
2022-12-11T10:43:14.675Z,4.99
2022-12-11T10:45:41.020Z,5.44
2022-12-11T10:48:07.389Z,5.45
2022-12-11T10:50:33.794Z,4.91
2022-12-11T10:53:00.148Z,4.74
2022-12-11T10:55:26.493Z,5.06
2022-12-11T10:57:52.844Z,5.16
2022-12-11T11:00:19.212Z,5.08
2022-12-11T11:02:45.615Z,5.43
2022-12-11T11:05:12.623Z,5.72
2022-12-11T11:07:39.240Z,5.13
2022-12-11T11:10:05.626Z,4.58
2022-12-11T11:12:31.974Z,4.68
2022-12-11T11:14:58.378Z,5.00
2022-12-11T11:17:24.761Z,5.45
2022-12-11T11:19:51.150Z,5.24
2022-12-11T11:22:17.537Z,5.31
2022-12-11T11:24:43.924Z,5.63
2022-12-11T11:27:14.037Z,5.26
2022-12-11T11:29:40.522Z,5.22
2022-12-11T11:32:06.900Z,5.44
2022-12-11T11:34:33.260Z,5.74
2022-12-11T11:36:59.640Z,5.80
2022-12-11T11:39:25.991Z,5.27
2022-12-11T11:41:52.589Z,5.95
2022-12-11T11:44:18.940Z,5.73
2022-12-11T11:46:45.333Z,5.85
2022-12-11T11:49:11.695Z,5.88
2022-12-11T11:51:38.035Z,5.56
2022-12-11T11:54:04.382Z,6.17
2022-12-11T11:56:30.734Z,5.88
2022-12-11T11:58:57.102Z,6.07
2022-12-11T12:01:23.489Z,6.20
2022-12-11T12:03:49.872Z,6.09
2022-12-11T12:06:16.263Z,5.79
2022-12-11T12:08:42.616Z,5.86
2022-12-11T12:11:08.998Z,6.01
2022-12-11T12:13:50.833Z,6.01
2022-12-11T12:16:50.477Z,5.91
2022-12-11T12:19:03.562Z,5.63
2022-12-11T12:21:29.946Z,5.23
2022-12-11T12:23:56.334Z,4.80
2022-12-11T12:26:22.773Z,4.91
2022-12-11T12:28:49.159Z,4.71
2022-12-11T12:31:15.545Z,5.34
2022-12-11T12:33:41.901Z,5.81
2022-12-11T12:36:08.273Z,5.91
2022-12-11T12:38:34.658Z,5.77
2022-12-11T12:41:01.038Z,6.03
2022-12-11T12:43:27.436Z,5.95
2022-12-11T12:45:53.870Z,5.73
2022-12-11T12:48:20.251Z,6.24
2022-12-11T12:50:46.659Z,6.09
2022-12-11T12:53:13.056Z,6.49
2022-12-11T12:55:39.410Z,6.33
2022-12-11T12:58:05.744Z,6.49
2022-12-11T13:00:32.114Z,6.43
2022-12-11T13:02:58.464Z,6.46
2022-12-11T13:05:24.847Z,6.17
2022-12-11T13:07:54.448Z,6.37
2022-12-11T13:10:21.085Z,6.72
2022-12-11T13:12:47.825Z,6.28
2022-12-11T13:15:14.166Z,6.56
2022-12-11T13:17:40.500Z,6.33
2022-12-11T13:20:06.843Z,6.22
2022-12-11T13:22:33.177Z,6.37
2022-12-11T13:24:59.568Z,6.83
2022-12-11T13:27:25.898Z,6.75
2022-12-11T13:29:52.289Z,6.29
2022-12-11T13:32:18.680Z,6.61
2022-12-11T13:34:45.061Z,6.67
2022-12-11T13:37:11.462Z,6.17
2022-12-11T13:39:37.847Z,6.18
2022-12-11T13:42:04.236Z,6.53
2022-12-11T13:44:30.582Z,6.73
2022-12-11T13:46:56.951Z,6.24
2022-12-11T13:49:23.350Z,6.41
2022-12-11T13:51:49.718Z,6.39
2022-12-11T13:54:17.218Z,6.38
2022-12-11T13:56:43.906Z,6.26
2022-12-11T13:59:10.273Z,6.04
2022-12-11T14:01:36.617Z,6.31
2022-12-11T14:04:03.001Z,6.20
2022-12-11T14:06:29.372Z,5.49
2022-12-11T14:08:55.764Z,5.61
2022-12-11T14:11:22.136Z,5.38
2022-12-11T14:13:48.508Z,5.42
2022-12-11T14:16:16.814Z,5.74
2022-12-11T14:18:43.288Z,5.73
2022-12-11T14:21:09.635Z,5.56
2022-12-11T14:23:36.017Z,5.71
2022-12-11T14:26:02.388Z,5.93
2022-12-11T14:28:28.770Z,6.17
2022-12-11T14:30:55.166Z,5.97
2022-12-11T14:33:21.549Z,6.19
2022-12-11T14:35:47.887Z,5.84
2022-12-11T14:38:14.244Z,6.13
2022-12-11T14:40:40.590Z,6.02
2022-12-11T14:43:06.939Z,6.19
2022-12-11T14:45:33.359Z,6.06
2022-12-11T14:47:59.801Z,6.02
2022-12-11T14:50:26.143Z,5.89
2022-12-11T14:52:52.479Z,5.36
2022-12-11T14:55:18.839Z,5.88
2022-12-11T14:57:45.202Z,5.53
2022-12-11T15:00:11.801Z,5.90
2022-12-11T15:02:38.436Z,5.88
2022-12-11T15:05:04.822Z,5.54
2022-12-11T15:07:31.173Z,5.27
2022-12-11T15:09:57.570Z,5.62
2022-12-11T15:12:23.963Z,5.85
2022-12-11T15:14:50.364Z,5.47
2022-12-11T15:17:16.791Z,5.40
2022-12-11T15:19:43.199Z,5.44
2022-12-11T15:22:09.574Z,5.19
2022-12-11T15:24:35.947Z,5.24
2022-12-11T15:27:02.303Z,5.19
2022-12-11T15:29:28.657Z,5.16
2022-12-11T15:31:55.027Z,5.11
2022-12-11T15:34:21.375Z,5.14
2022-12-11T15:36:47.799Z,5.14
2022-12-11T15:39:14.172Z,5.32
2022-12-11T15:41:40.566Z,5.30
2022-12-11T15:44:06.917Z,5.20
2022-12-11T15:46:33.328Z,5.18
2022-12-11T15:48:59.703Z,5.45
2022-12-11T15:51:26.046Z,5.08
2022-12-11T15:53:52.381Z,4.73
2022-12-11T15:56:18.757Z,5.22
2022-12-11T15:58:45.150Z,5.07
2022-12-11T16:01:11.589Z,4.87
2022-12-11T16:03:38.000Z,4.94
2022-12-11T16:06:04.427Z,4.87
2022-12-11T16:08:30.887Z,4.78
2022-12-11T16:10:57.280Z,4.33
2022-12-11T16:13:23.625Z,4.52
2022-12-11T16:15:50.030Z,4.39
2022-12-11T16:18:16.477Z,4.87
2022-12-11T16:20:42.868Z,5.12
2022-12-11T16:23:09.239Z,4.75
2022-12-11T16:25:35.607Z,4.60
2022-12-11T16:28:01.992Z,5.06
2022-12-11T16:30:28.375Z,5.25
2022-12-11T16:32:54.770Z,4.94
2022-12-11T16:35:21.122Z,5.37
2022-12-11T16:37:47.459Z,4.94
2022-12-11T16:40:13.873Z,5.01
2022-12-11T16:42:40.223Z,4.75
2022-12-11T16:45:06.565Z,5.20
2022-12-11T16:47:32.982Z,4.98
2022-12-11T16:49:59.370Z,4.78
2022-12-11T16:52:25.723Z,4.96
2022-12-11T16:54:52.114Z,4.76
2022-12-11T16:57:18.469Z,4.54
2022-12-11T16:59:44.825Z,3.96
2022-12-11T17:02:11.164Z,4.16
2022-12-11T17:04:37.552Z,4.43
2022-12-11T17:07:03.910Z,4.35
2022-12-11T17:09:30.286Z,3.87
2022-12-11T17:11:56.672Z,3.21
2022-12-11T17:14:23.054Z,3.67
2022-12-11T17:16:49.402Z,3.88
2022-12-11T17:19:15.749Z,4.02
2022-12-11T17:21:44.798Z,4.31
2022-12-11T17:24:14.829Z,4.25
2022-12-11T17:26:41.187Z,4.12
2022-12-11T17:29:07.657Z,4.22
2022-12-11T17:31:34.164Z,4.04
2022-12-11T17:34:00.611Z,3.96
2022-12-11T17:36:27.004Z,4.23
2022-12-11T17:38:53.405Z,3.87
2022-12-11T17:41:21.032Z,3.66
2022-12-11T17:43:47.590Z,3.53
2022-12-11T17:46:13.975Z,3.14
2022-12-11T17:48:40.365Z,3.04
2022-12-11T17:51:06.696Z,3.31
2022-12-11T17:53:33.057Z,3.45
2022-12-11T17:55:59.474Z,3.20
2022-12-11T17:58:25.856Z,3.14
2022-12-11T18:00:52.233Z,3.23
2022-12-11T18:03:18.633Z,2.99
2022-12-11T18:05:45.034Z,3.27
2022-12-11T18:08:11.485Z,3.20
2022-12-11T18:10:37.846Z,3.26
2022-12-11T18:13:04.190Z,3.00
2022-12-11T18:15:30.577Z,3.29
2022-12-11T18:17:56.932Z,2.85
2022-12-11T18:20:23.288Z,2.94
2022-12-11T18:22:49.675Z,2.89
2022-12-11T18:25:16.453Z,2.63
2022-12-11T18:27:43.109Z,2.58
2022-12-11T18:30:09.467Z,2.71
2022-12-11T18:32:35.818Z,2.90
2022-12-11T18:35:02.201Z,2.69
2022-12-11T18:37:28.577Z,2.29
2022-12-11T18:39:54.926Z,2.21
2022-12-11T18:42:32.874Z,2.53
2022-12-11T18:44:59.630Z,2.38
2022-12-11T18:47:26.011Z,2.73
2022-12-11T18:49:52.557Z,2.10
2022-12-11T18:52:18.984Z,2.49
2022-12-11T18:54:45.364Z,2.40
2022-12-11T18:57:11.712Z,2.24
2022-12-11T18:59:38.050Z,2.25
2022-12-11T19:02:04.462Z,2.13
2022-12-11T19:04:30.861Z,2.38
2022-12-11T19:06:57.254Z,2.72
2022-12-11T19:09:23.636Z,2.83
2022-12-11T19:11:49.981Z,2.89
2022-12-11T19:14:16.320Z,2.94
2022-12-11T19:16:42.663Z,2.96
2022-12-11T19:19:09.007Z,3.22
2022-12-11T19:21:35.410Z,2.80
2022-12-11T19:24:01.833Z,2.76
2022-12-11T19:26:28.223Z,2.50
2022-12-11T19:28:54.619Z,2.58
2022-12-11T19:31:20.985Z,2.74
2022-12-11T19:33:47.565Z,2.31
2022-12-11T19:36:13.899Z,2.19
2022-12-11T19:38:40.240Z,2.33
2022-12-11T19:41:06.707Z,2.45
2022-12-11T19:43:33.142Z,2.41
2022-12-11T19:45:59.483Z,2.14
2022-12-11T19:48:25.891Z,2.52
2022-12-11T19:50:52.246Z,2.66
2022-12-11T19:53:18.588Z,2.42
2022-12-11T19:55:44.968Z,2.66
2022-12-11T19:58:11.319Z,3.04
2022-12-11T20:00:37.708Z,2.87
2022-12-11T20:03:04.121Z,2.88
2022-12-11T20:05:30.470Z,2.92
2022-12-11T20:08:02.102Z,3.31
2022-12-11T20:10:40.861Z,3.39
2022-12-11T20:13:07.248Z,3.22
2022-12-11T20:15:33.741Z,3.22
2022-12-11T20:18:00.234Z,2.71
2022-12-11T20:20:26.635Z,3.12
2022-12-11T20:22:53.030Z,3.09
2022-12-11T20:25:19.424Z,3.09
2022-12-11T20:27:45.871Z,3.19
2022-12-11T20:30:12.234Z,2.90
2022-12-11T20:32:38.567Z,2.96
2022-12-11T20:35:04.989Z,2.90
2022-12-11T20:37:31.339Z,3.11
2022-12-11T20:39:57.709Z,3.24
2022-12-11T20:42:24.095Z,2.96
2022-12-11T20:44:50.475Z,2.76
2022-12-11T20:47:16.814Z,2.53
2022-12-11T20:49:43.206Z,2.52
2022-12-11T20:52:09.588Z,2.34
2022-12-11T20:54:35.944Z,2.27
2022-12-11T20:57:02.337Z,2.31
2022-12-11T20:59:28.878Z,1.92
2022-12-11T21:01:55.260Z,1.92
2022-12-11T21:04:21.652Z,1.75
2022-12-11T21:06:48.046Z,2.02
2022-12-11T21:09:14.400Z,1.93
2022-12-11T21:11:40.817Z,2.01
2022-12-11T21:14:07.165Z,1.92
2022-12-11T21:16:33.551Z,1.60
2022-12-11T21:18:59.957Z,1.66
2022-12-11T21:21:26.309Z,1.29
2022-12-11T21:23:52.647Z,1.42
2022-12-11T21:26:19.012Z,1.51
2022-12-11T21:28:45.406Z,1.26
2022-12-11T21:31:11.836Z,1.35
2022-12-11T21:33:38.219Z,1.38
2022-12-11T21:36:04.557Z,1.46
2022-12-11T21:38:30.900Z,1.47
2022-12-11T21:40:57.231Z,1.42
2022-12-11T21:43:23.616Z,1.52
2022-12-11T21:46:01.056Z,1.46
2022-12-11T21:48:28.021Z,1.82
2022-12-11T21:50:54.415Z,1.91
2022-12-11T21:53:20.810Z,1.84
2022-12-11T21:55:47.230Z,1.93
2022-12-11T21:58:13.584Z,1.75
2022-12-11T22:00:39.971Z,1.98
2022-12-11T22:03:06.331Z,2.08
2022-12-11T22:05:32.675Z,2.22
2022-12-11T22:07:59.138Z,1.72
2022-12-11T22:10:25.553Z,2.07
2022-12-11T22:12:51.964Z,2.29
2022-12-11T22:15:18.367Z,2.55
2022-12-11T22:17:44.748Z,2.03
2022-12-11T22:20:11.096Z,2.12
2022-12-11T22:22:37.427Z,2.21
2022-12-11T22:25:03.774Z,2.14
2022-12-11T22:27:30.181Z,2.26
2022-12-11T22:29:56.581Z,2.64
2022-12-11T22:32:22.928Z,2.71
2022-12-11T22:34:49.269Z,2.67
2022-12-11T22:37:15.632Z,2.61
2022-12-11T22:39:42.012Z,2.49
2022-12-11T22:42:08.412Z,2.57
2022-12-11T22:44:34.795Z,2.32
2022-12-11T22:47:01.186Z,2.25
2022-12-11T22:49:27.549Z,2.22
2022-12-11T22:51:53.878Z,2.47
2022-12-11T22:54:20.300Z,2.14
2022-12-11T22:56:46.665Z,2.34
2022-12-11T22:59:13.046Z,1.90
2022-12-11T23:01:39.394Z,2.03
2022-12-11T23:04:05.754Z,2.23
2022-12-11T23:06:32.129Z,2.37
2022-12-11T23:08:58.614Z,2.35
2022-12-11T23:11:25.071Z,2.45
2022-12-11T23:13:51.434Z,2.47
2022-12-11T23:16:17.829Z,2.79
2022-12-11T23:18:44.231Z,2.52
2022-12-11T23:21:10.566Z,2.65
2022-12-11T23:23:36.905Z,2.56
2022-12-11T23:26:03.241Z,2.93
2022-12-11T23:28:29.584Z,2.83
2022-12-11T23:30:56.015Z,2.91
2022-12-11T23:33:22.446Z,2.75
2022-12-11T23:35:48.849Z,2.95
2022-12-11T23:38:15.187Z,2.92
2022-12-11T23:40:41.536Z,2.80
2022-12-11T23:43:07.920Z,2.63
2022-12-11T23:45:34.263Z,2.88
2022-12-11T23:48:00.638Z,2.49
2022-12-11T23:50:27.024Z,2.66
2022-12-11T23:52:53.385Z,2.32
2022-12-11T23:55:19.770Z,2.39
2022-12-11T23:57:46.117Z,2.64
